Time;durP1;ratioP1;P1;durP2;ratioP2;P2;SDS_P1;SDS_P2;PMS_P1;PMS_P2;Temp;Humidity;BMP_temperature;BMP_pressure;BME280_temperature;BME280_humidity;BME280_pressure;Samples;Min_cycle;Max_cycle;Signal;HPM_P1;HPM_P2
2021/09/08 00:01:18;;;;;;;11.05;5.30;;;14.60;87.60;;;;;;6311770;22;20042;-74
2021/09/08 00:03:53;;;;;;;11.38;5.75;;;14.60;87.70;;;;;;6316254;22;20041;-74
2021/09/08 00:06:20;;;;;;;11.05;5.43;;;14.60;87.50;;;;;;6316869;22;20027;-74
2021/09/08 00:08:47;;;;;;;12.35;5.63;;;14.60;87.60;;;;;;6315995;22;20081;-74
2021/09/08 00:11:14;;;;;;;12.15;5.82;;;14.60;87.50;;;;;;6289507;22;20071;-74
2021/09/08 00:13:41;;;;;;;13.55;5.55;;;14.50;87.70;;;;;;6288618;22;20240;-74
2021/09/08 00:16:09;;;;;;;10.80;5.20;;;14.50;87.80;;;;;;6314042;22;20057;-74
2021/09/08 00:18:36;;;;;;;12.48;5.68;;;14.40;87.90;;;;;;6313929;22;20080;-74
2021/09/08 00:21:05;;;;;;;12.75;5.90;;;14.40;88.00;;;;;;6287533;22;20035;-73
2021/09/08 00:23:35;;;;;;;11.73;5.80;;;14.30;88.10;;;;;;6314673;22;20047;-75
2021/09/08 00:26:02;;;;;;;11.15;5.70;;;14.40;88.20;;;;;;6314719;22;20023;-74
2021/09/08 00:28:29;;;;;;;10.88;5.68;;;14.30;88.20;;;;;;6314516;22;20026;-74
2021/09/08 00:30:56;;;;;;;10.77;5.57;;;14.30;88.30;;;;;;6314662;22;20042;-74
2021/09/08 00:33:24;;;;;;;10.90;5.10;;;14.30;88.20;;;;;;6314335;22;20192;-74
2021/09/08 00:35:53;;;;;;;14.23;5.20;;;14.30;88.10;;;;;;6313179;22;20027;-74
2021/09/08 00:38:22;;;;;;;13.30;5.78;;;14.30;88.20;;;;;;6314238;22;20074;-75
2021/09/08 00:40:49;;;;;;;11.13;5.40;;;14.20;88.20;;;;;;6286722;22;20070;-75
2021/09/08 00:43:18;;;;;;;11.88;5.50;;;14.20;88.20;;;;;;6313700;22;20064;-74
2021/09/08 00:45:51;;;;;;;11.35;5.70;;;14.20;88.20;;;;;;6313826;22;20215;-74
2021/09/08 00:48:20;;;;;;;13.18;5.15;;;14.20;88.10;;;;;;6288014;22;20089;-74
2021/09/08 00:50:49;;;;;;;12.35;5.20;;;14.20;88.30;;;;;;6314308;22;20041;-74
2021/09/08 00:53:18;;;;;;;14.23;5.53;;;14.10;88.30;;;;;;6314828;22;20046;-74
2021/09/08 00:55:49;;;;;;;12.25;6.32;;;14.10;88.40;;;;;;6288090;22;20027;-74
2021/09/08 00:58:17;;;;;;;10.23;5.00;;;14.20;88.10;;;;;;6317188;22;20322;-74
2021/09/08 01:00:44;;;;;;;11.70;5.50;;;14.10;88.10;;;;;;6310183;22;20123;-74
2021/09/08 01:03:13;;;;;;;14.02;5.78;;;14.10;88.10;;;;;;6288659;22;20123;-74
2021/09/08 01:05:41;;;;;;;11.35;5.72;;;14.10;88.30;;;;;;6315345;22;20069;-74
2021/09/08 01:08:08;;;;;;;16.73;5.47;;;14.00;88.30;;;;;;6288241;22;20087;-74
2021/09/08 01:10:36;;;;;;;9.50;4.97;;;14.10;88.60;;;;;;6288194;22;20026;-74
2021/09/08 01:13:05;;;;;;;12.55;5.72;;;14.00;88.60;;;;;;6315976;22;20042;-74
2021/09/08 01:15:57;;;;;;;12.10;5.85;;;14.00;88.40;;;;;;2176837;22;10021934;-74
2021/09/08 01:18:24;;;;;;;10.57;5.18;;;13.90;88.40;;;;;;5876945;22;10000729;-74
2021/09/08 01:20:51;;;;;;;15.30;5.90;;;14.00;88.40;;;;;;6289084;22;20034;-74
2021/09/08 01:23:21;;;;;;;13.25;6.60;;;14.00;88.50;;;;;;6315742;22;20058;-74
2021/09/08 01:25:48;;;;;;;10.27;5.35;;;13.90;88.70;;;;;;6316374;22;20073;-74
2021/09/08 01:28:15;;;;;;;15.30;5.93;;;13.90;88.60;;;;;;6316057;22;20326;-74
2021/09/08 01:30:43;;;;;;;11.90;5.22;;;13.90;88.90;;;;;;6313659;22;20079;-74
2021/09/08 01:33:11;;;;;;;11.60;5.47;;;13.90;88.80;;;;;;6316000;22;20027;-74
2021/09/08 01:35:38;;;;;;;10.75;5.40;;;13.80;89.10;;;;;;6314374;22;20031;-74
2021/09/08 01:38:05;;;;;;;14.15;5.80;;;13.80;89.10;;;;;;6289478;22;20360;-74
2021/09/08 01:40:34;;;;;;;14.23;5.97;;;13.80;89.10;;;;;;6314954;22;20023;-74
2021/09/08 01:43:01;;;;;;;13.85;6.05;;;13.80;89.10;;;;;;6315645;22;20041;-74
2021/09/08 01:45:29;;;;;;;10.75;5.50;;;13.80;89.10;;;;;;6281945;22;20031;-74
2021/09/08 01:47:57;;;;;;;12.88;6.55;;;13.80;89.10;;;;;;6283023;22;20043;-74
2021/09/08 01:50:25;;;;;;;12.30;5.47;;;13.80;89.20;;;;;;6284935;22;20035;-74
2021/09/08 01:52:52;;;;;;;12.35;5.70;;;13.70;89.10;;;;;;6285011;22;20062;-74
2021/09/08 01:55:19;;;;;;;14.63;5.65;;;13.80;89.20;;;;;;6283179;22;20087;-74
2021/09/08 01:57:48;;;;;;;11.48;5.38;;;13.80;89.10;;;;;;6282336;22;20032;-74
2021/09/08 02:00:16;;;;;;;14.07;5.68;;;13.70;88.90;;;;;;6275865;22;20050;-74
2021/09/08 02:02:44;;;;;;;11.65;5.68;;;13.70;89.20;;;;;;6282254;22;20360;-74
2021/09/08 02:05:13;;;;;;;13.45;5.93;;;13.70;89.10;;;;;;6282455;22;20074;-74
2021/09/08 02:07:41;;;;;;;15.85;6.53;;;13.70;89.10;;;;;;6280997;22;20372;-74
2021/09/08 02:10:10;;;;;;;12.27;5.38;;;13.70;89.10;;;;;;6281711;22;20062;-74
2021/09/08 02:12:39;;;;;;;;;;;13.70;89.10;;;;;;6283066;22;20254;-74
2021/09/08 02:15:09;;;;;;;11.80;5.03;;;13.70;89.10;;;;;;6282184;22;19930;-74
2021/09/08 02:17:36;;;;;;;11.93;5.83;;;13.70;89.10;;;;;;6283067;22;20031;-74
2021/09/08 02:20:05;;;;;;;12.45;6.05;;;13.70;89.00;;;;;;6282928;22;20409;-74
2021/09/08 02:22:32;;;;;;;14.13;4.65;;;13.80;88.90;;;;;;6281077;22;20038;-74
2021/09/08 02:25:00;;;;;;;15.15;5.60;;;13.80;88.90;;;;;;6283033;22;20071;-74
2021/09/08 02:27:30;;;;;;;12.65;6.03;;;13.80;88.80;;;;;;6280763;22;20061;-74
2021/09/08 02:29:57;;;;;;;11.73;5.20;;;13.70;88.90;;;;;;6280868;22;20016;-74
2021/09/08 02:32:25;;;;;;;12.63;7.13;;;13.60;89.10;;;;;;6284176;22;20043;-74
2021/09/08 02:34:53;;;;;;;11.25;5.50;;;13.60;89.20;;;;;;6287694;22;20016;-74
2021/09/08 02:37:20;;;;;;;13.25;5.85;;;13.60;89.30;;;;;;6285370;22;20039;-73
2021/09/08 02:39:47;;;;;;;13.90;5.88;;;13.50;89.40;;;;;;6284528;22;20075;-74
2021/09/08 02:42:15;;;;;;;8.95;4.90;;;13.60;89.50;;;;;;6285425;22;20070;-74
2021/09/08 02:44:43;;;;;;;12.73;6.00;;;13.50;89.30;;;;;;6299031;22;20003;-74
2021/09/08 02:47:11;;;;;;;13.77;5.78;;;13.40;89.50;;;;;;6317238;22;20046;-74
2021/09/08 02:49:39;;;;;;;14.30;5.60;;;13.40;89.50;;;;;;6316905;22;20253;-74
2021/09/08 02:52:07;;;;;;;11.10;5.32;;;13.40;89.50;;;;;;6316122;22;20075;-74
2021/09/08 02:54:35;;;;;;;11.23;5.50;;;13.40;89.50;;;;;;6316038;22;20030;-74
2021/09/08 02:57:03;;;;;;;12.93;5.45;;;13.30;89.60;;;;;;6317283;22;20012;-74
2021/09/08 02:59:30;;;;;;;12.05;5.78;;;13.40;89.70;;;;;;6316886;22;20019;-74
2021/09/08 03:01:57;;;;;;;13.93;5.82;;;13.40;89.50;;;;;;6312708;22;20220;-73
2021/09/08 03:04:25;;;;;;;12.23;5.70;;;13.40;89.50;;;;;;6314567;22;20031;-74
2021/09/08 03:06:56;;;;;;;13.45;5.13;;;13.40;89.70;;;;;;6316835;22;20015;-74
2021/09/08 03:09:23;;;;;;;14.15;6.30;;;13.50;89.50;;;;;;6316478;22;20026;-74
2021/09/08 03:11:50;;;;;;;13.70;5.78;;;13.40;89.30;;;;;;6289343;22;20022;-73
2021/09/08 03:14:18;;;;;;;12.73;5.95;;;13.40;89.20;;;;;;6317317;22;20063;-73
2021/09/08 03:16:45;;;;;;;12.85;5.68;;;13.40;89.30;;;;;;6317416;22;20019;-73
2021/09/08 03:19:12;;;;;;;19.33;6.20;;;13.20;89.40;;;;;;6317223;22;20022;-73
2021/09/08 03:21:39;;;;;;;12.65;5.57;;;13.20;89.50;;;;;;6316201;22;20019;-74
2021/09/08 03:24:08;;;;;;;12.55;6.22;;;13.20;89.60;;;;;;6316527;22;20023;-73
2021/09/08 03:26:35;;;;;;;13.95;5.95;;;13.10;89.70;;;;;;6316349;22;20043;-74
2021/09/08 03:29:02;;;;;;;14.40;5.65;;;13.10;89.80;;;;;;6289947;22;20064;-74
2021/09/08 03:31:30;;;;;;;12.80;6.47;;;13.10;89.90;;;;;;6316566;22;20019;-74
2021/09/08 03:33:57;;;;;;;12.20;5.38;;;13.00;90.10;;;;;;6288883;22;20070;-74
2021/09/08 03:36:24;;;;;;;14.10;6.55;;;13.00;90.10;;;;;;6314607;22;20034;-74
2021/09/08 03:38:52;;;;;;;14.35;5.35;;;13.00;90.00;;;;;;6315855;22;20015;-73
2021/09/08 03:41:20;;;;;;;14.65;6.35;;;13.00;90.00;;;;;;6315446;22;20023;-73
2021/09/08 03:43:47;;;;;;;12.13;5.82;;;13.00;90.00;;;;;;6315255;22;20270;-73
2021/09/08 03:46:14;;;;;;;15.73;7.03;;;13.10;90.10;;;;;;6288210;22;20054;-73
2021/09/08 03:48:42;;;;;;;13.70;6.93;;;13.10;90.00;;;;;;6314734;22;20026;-74
2021/09/08 03:51:10;;;;;;;16.00;6.20;;;13.00;90.10;;;;;;6287862;22;20023;-74
2021/09/08 03:53:38;;;;;;;12.82;6.82;;;13.00;90.10;;;;;;6315335;22;20019;-73
2021/09/08 03:56:05;;;;;;;13.90;6.70;;;13.00;90.20;;;;;;6315717;22;20333;-73
2021/09/08 03:58:35;;;;;;;12.05;5.95;;;12.90;90.10;;;;;;6316042;22;20054;-74
2021/09/08 04:01:02;;;;;;;19.45;7.13;;;13.00;90.10;;;;;;6310521;22;20023;-73
2021/09/08 04:03:29;;;;;;;13.30;5.68;;;13.00;90.00;;;;;;6315587;22;20027;-74
2021/09/08 04:05:57;;;;;;;12.35;5.82;;;13.00;90.00;;;;;;6315922;22;20031;-74
2021/09/08 04:08:24;;;;;;;12.90;5.63;;;13.00;90.00;;;;;;6314658;22;20376;-73
2021/09/08 04:10:51;;;;;;;13.43;5.80;;;13.00;89.90;;;;;;6315175;22;20015;-73
2021/09/08 04:13:18;;;;;;;12.15;6.00;;;12.90;90.00;;;;;;6314963;22;20045;-74
2021/09/08 04:15:47;;;;;;;13.40;6.57;;;12.90;90.00;;;;;;6316311;22;20049;-73
2021/09/08 04:18:14;;;;;;;13.23;5.60;;;12.90;89.90;;;;;;6317513;22;20035;-73
2021/09/08 04:20:42;;;;;;;12.15;5.70;;;12.90;89.80;;;;;;6316269;22;20053;-75
2021/09/08 04:23:10;;;;;;;12.88;5.47;;;13.00;89.90;;;;;;6316135;22;20027;-73
2021/09/08 04:25:37;;;;;;;11.82;5.32;;;13.00;89.80;;;;;;6315559;22;20027;-74
2021/09/08 04:28:04;;;;;;;16.98;6.45;;;13.10;89.40;;;;;;6316628;22;20066;-74
2021/09/08 04:30:31;;;;;;;15.40;6.30;;;13.10;89.50;;;;;;6288522;22;20045;-73
2021/09/08 04:33:00;;;;;;;16.55;6.55;;;13.10;89.50;;;;;;6317205;22;20027;-74
2021/09/08 04:35:27;;;;;;;11.77;5.70;;;13.20;89.30;;;;;;6316229;22;20034;-74
2021/09/08 04:37:54;;;;;;;13.63;6.50;;;13.20;89.40;;;;;;6289893;22;20191;-73
2021/09/08 04:40:22;;;;;;;13.43;6.45;;;13.20;89.30;;;;;;6288593;22;20146;-73
2021/09/08 04:42:49;;;;;;;15.43;6.35;;;13.20;89.20;;;;;;6316320;22;20307;-74
2021/09/08 04:45:16;;;;;;;14.45;6.40;;;13.20;89.30;;;;;;6316712;22;20015;-73
2021/09/08 04:47:44;;;;;;;14.93;6.47;;;13.20;89.30;;;;;;6315254;22;20237;-72
2021/09/08 04:50:18;;;;;;;16.27;7.07;;;13.10;89.30;;;;;;6317880;22;20062;-74
2021/09/08 04:52:45;;;;;;;16.98;7.05;;;13.10;89.50;;;;;;6289463;22;20023;-73
2021/09/08 04:55:12;;;;;;;13.05;6.28;;;13.00;89.50;;;;;;6291412;22;20213;-73
2021/09/08 04:57:39;;;;;;;10.82;6.05;;;13.00;89.50;;;;;;6316515;22;20046;-74
2021/09/08 05:00:08;;;;;;;13.90;5.95;;;13.00;89.30;;;;;;6312791;22;20035;-73
2021/09/08 05:02:37;;;;;;;11.63;5.50;;;13.00;89.40;;;;;;6316351;22;20064;-73
2021/09/08 05:05:04;;;;;;;14.57;6.88;;;12.90;89.40;;;;;;6288699;22;20116;-73
2021/09/08 05:07:33;;;;;;;13.63;5.72;;;13.00;89.40;;;;;;6315446;22;20038;-74
2021/09/08 05:10:00;;;;;;;15.63;6.30;;;12.90;89.30;;;;;;6288946;22;20038;-73
2021/09/08 05:12:31;;;;;;;13.32;6.05;;;12.90;89.40;;;;;;6313456;22;20189;-74
2021/09/08 05:14:58;;;;;;;13.35;6.40;;;12.90;89.50;;;;;;6314728;22;20045;-73
2021/09/08 05:17:25;;;;;;;16.13;6.50;;;12.90;89.40;;;;;;6286668;22;20015;-73
2021/09/08 05:19:52;;;;;;;18.63;6.50;;;13.00;89.50;;;;;;6313847;22;20019;-74
2021/09/08 05:22:20;;;;;;;13.23;7.03;;;13.10;89.40;;;;;;6314481;22;20079;-74
2021/09/08 05:24:48;;;;;;;16.23;7.15;;;13.10;89.40;;;;;;6312502;22;20038;-74
2021/09/08 05:27:16;;;;;;;16.38;6.53;;;13.10;89.00;;;;;;6287428;22;20214;-73
2021/09/08 05:29:43;;;;;;;12.15;6.25;;;13.20;89.10;;;;;;6313571;22;20027;-72
2021/09/08 05:32:10;;;;;;;14.18;6.20;;;13.10;89.00;;;;;;6314395;22;20030;-72
2021/09/08 05:34:37;;;;;;;14.35;6.68;;;13.20;89.10;;;;;;6313092;22;20027;-73
2021/09/08 05:37:04;;;;;;;12.68;6.00;;;13.10;89.10;;;;;;6288019;22;20026;-73
2021/09/08 05:39:31;;;;;;;14.25;6.13;;;13.10;89.20;;;;;;6313429;22;20184;-73
2021/09/08 05:42:00;;;;;;;14.68;6.80;;;13.20;89.30;;;;;;6289755;22;20191;-73
2021/09/08 05:44:34;;;;;;;12.07;5.57;;;13.20;89.30;;;;;;6313658;22;20403;-72
2021/09/08 05:47:01;;;;;;;11.93;6.30;;;13.30;89.00;;;;;;6287140;22;20076;-74
2021/09/08 05:49:29;;;;;;;13.70;5.82;;;13.30;88.80;;;;;;6315192;22;20021;-73
2021/09/08 05:51:56;;;;;;;12.60;6.13;;;13.30;88.70;;;;;;6316977;22;20065;-73
2021/09/08 05:54:23;;;;;;;12.95;5.65;;;13.40;88.60;;;;;;6290169;22;20038;-73
2021/09/08 05:56:50;;;;;;;12.57;6.15;;;13.30;88.60;;;;;;6317874;22;20027;-74
2021/09/08 05:59:19;;;;;;;14.20;5.90;;;13.40;88.60;;;;;;6317462;22;20019;-73
2021/09/08 06:01:46;;;;;;;13.10;6.35;;;13.60;88.30;;;;;;6284053;22;20212;-74
2021/09/08 06:04:13;;;;;;;10.48;5.95;;;13.50;88.20;;;;;;6316047;22;20023;-74
2021/09/08 06:06:40;;;;;;;15.85;6.80;;;13.60;88.10;;;;;;6315148;22;20253;-74
2021/09/08 06:09:07;;;;;;;14.85;6.18;;;13.60;88.00;;;;;;6315318;22;20019;-74
2021/09/08 06:11:35;;;;;;;15.50;6.20;;;13.60;88.10;;;;;;6314813;22;20065;-74
2021/09/08 06:14:02;;;;;;;20.10;6.15;;;13.70;88.00;;;;;;6315817;22;20030;-75
2021/09/08 06:16:32;;;;;;;12.23;5.93;;;13.80;87.80;;;;;;6314088;22;20322;-73
2021/09/08 06:18:59;;;;;;;12.73;6.10;;;13.90;87.70;;;;;;6287667;22;20019;-73
2021/09/08 06:21:26;;;;;;;11.75;6.22;;;13.90;87.60;;;;;;6314936;22;20023;-75
2021/09/08 06:23:53;;;;;;;22.65;7.05;;;14.00;87.40;;;;;;6315320;22;20218;-73
2021/09/08 06:26:21;;;;;;;15.35;7.05;;;14.10;87.20;;;;;;6314346;22;20027;-74
2021/09/08 06:28:49;;;;;;;13.57;6.18;;;14.10;87.20;;;;;;6315180;22;20077;-74
2021/09/08 06:31:16;;;;;;;20.58;7.07;;;14.20;86.80;;;;;;6315450;22;20015;-74
2021/09/08 06:33:44;;;;;;;17.90;6.15;;;14.30;86.60;;;;;;6315256;22;20038;-74
2021/09/08 06:36:11;;;;;;;12.55;5.93;;;14.40;86.40;;;;;;6315530;22;20019;-74
2021/09/08 06:38:38;;;;;;;12.50;5.88;;;14.40;86.50;;;;;;6315816;22;20310;-73
2021/09/08 06:41:06;;;;;;;13.52;6.13;;;14.50;86.30;;;;;;6316473;22;20038;-74
2021/09/08 06:43:33;;;;;;;14.20;6.32;;;14.60;86.00;;;;;;6314488;22;20038;-73
2021/09/08 06:46:00;;;;;;;12.13;5.57;;;14.70;85.60;;;;;;6315040;22;20348;-73
2021/09/08 06:48:27;;;;;;;16.33;7.10;;;14.80;85.30;;;;;;6314728;22;20217;-74
2021/09/08 06:50:55;;;;;;;14.25;6.45;;;14.90;85.50;;;;;;6315267;22;20023;-73
2021/09/08 06:53:23;;;;;;;11.90;5.68;;;15.00;85.30;;;;;;6314846;22;20334;-74
2021/09/08 06:55:50;;;;;;;13.13;6.32;;;15.10;85.10;;;;;;6313317;22;20327;-73
2021/09/08 06:58:17;;;;;;;12.60;6.38;;;15.20;84.80;;;;;;6313355;22;20023;-74
2021/09/08 07:00:45;;;;;;;15.93;6.18;;;15.30;84.60;;;;;;6307441;22;20027;-73
2021/09/08 07:03:12;;;;;;;13.15;5.95;;;15.40;84.30;;;;;;6285433;22;20046;-73
2021/09/08 07:05:39;;;;;;;11.15;5.65;;;15.60;83.60;;;;;;6312964;22;20319;-74
2021/09/08 07:08:09;;;;;;;14.70;6.00;;;15.70;83.60;;;;;;6313842;22;20319;-74
2021/09/08 07:10:37;;;;;;;12.15;6.13;;;15.90;83.30;;;;;;6285245;22;20019;-74
2021/09/08 07:13:04;;;;;;;12.05;6.72;;;16.00;83.10;;;;;;6312642;22;20023;-73
2021/09/08 07:15:31;;;;;;;15.70;6.53;;;16.10;82.50;;;;;;6310208;22;20019;-74
2021/09/08 07:17:58;;;;;;;13.40;6.63;;;16.20;82.20;;;;;;6314576;22;20245;-74
2021/09/08 07:20:25;;;;;;;14.23;6.70;;;16.40;81.80;;;;;;6312655;22;20121;-74
2021/09/08 07:22:53;;;;;;;16.45;6.03;;;16.60;81.60;;;;;;6314353;22;20027;-75
2021/09/08 07:25:23;;;;;;;11.20;5.82;;;16.70;81.10;;;;;;6314540;22;20034;-75
2021/09/08 07:27:50;;;;;;;14.85;5.72;;;16.80;80.80;;;;;;6286696;22;20019;-74
2021/09/08 07:30:17;;;;;;;14.40;6.25;;;17.00;80.50;;;;;;6314421;22;20023;-75
2021/09/08 07:32:44;;;;;;;11.68;6.18;;;17.10;80.20;;;;;;6315224;22;20246;-74
2021/09/08 07:35:12;;;;;;;12.23;5.30;;;17.20;79.60;;;;;;6316527;22;20045;-74
2021/09/08 07:37:39;;;;;;;11.43;5.47;;;17.30;79.20;;;;;;6315177;22;20035;-74
2021/09/08 07:40:09;;;;;;;9.70;5.20;;;17.50;78.70;;;;;;6315383;22;20039;-73
2021/09/08 07:42:38;;;;;;;11.82;6.53;;;17.70;78.20;;;;;;6315778;22;20039;-74
2021/09/08 07:45:06;;;;;;;12.32;6.00;;;17.90;77.40;;;;;;6315584;22;20031;-74
2021/09/08 07:47:34;;;;;;;12.23;5.88;;;18.10;77.00;;;;;;6315878;22;20046;-74
2021/09/08 07:50:01;;;;;;;13.20;5.80;;;18.20;76.50;;;;;;6316963;22;20016;-74
2021/09/08 07:52:28;;;;;;;11.50;5.70;;;18.30;76.60;;;;;;6315695;22;20019;-74
2021/09/08 07:54:55;;;;;;;14.13;5.70;;;18.40;76.00;;;;;;6316507;22;20034;-74
2021/09/08 07:57:22;;;;;;;13.45;5.30;;;18.50;76.00;;;;;;6288503;22;20019;-74
2021/09/08 07:59:51;;;;;;;11.02;6.43;;;18.50;75.30;;;;;;6316974;22;20030;-73
2021/09/08 08:02:18;;;;;;;22.15;10.23;;;18.70;75.50;;;;;;6312053;22;20053;-73
2021/09/08 08:04:45;;;;;;;11.27;6.10;;;18.80;75.10;;;;;;6315590;22;20073;-73
2021/09/08 08:07:12;;;;;;;14.98;6.38;;;18.90;74.70;;;;;;6316608;22;20202;-72
2021/09/08 08:09:42;;;;;;;14.32;6.00;;;19.00;74.10;;;;;;6315957;22;20047;-73
2021/09/08 08:12:10;;;;;;;;;;;19.10;73.50;;;;;;6317609;22;20046;-74
2021/09/08 08:14:37;;;;;;;12.20;4.97;;;19.30;73.30;;;;;;6316049;22;19925;-74
2021/09/08 08:17:06;;;;;;;11.70;6.03;;;19.30;73.20;;;;;;6314270;22;20015;-75
2021/09/08 08:19:34;;;;;;;10.40;5.25;;;19.40;72.70;;;;;;6315784;22;20023;-74
2021/09/08 08:22:01;;;;;;;14.95;7.45;;;19.60;72.00;;;;;;6315313;22;20027;-74
2021/09/08 08:24:29;;;;;;;17.33;7.80;;;19.80;71.80;;;;;;6318825;22;20057;-74
2021/09/08 08:26:58;;;;;;;17.25;7.88;;;19.80;71.50;;;;;;6317656;22;20019;-76
2021/09/08 08:29:25;;;;;;;12.07;6.53;;;20.00;71.10;;;;;;6286557;22;20373;-74
2021/09/08 08:31:52;;;;;;;10.32;5.22;;;20.00;70.80;;;;;;6289176;22;20246;-74
2021/09/08 08:34:21;;;;;;;13.95;5.57;;;20.20;70.60;;;;;;6315887;22;20039;-75
2021/09/08 08:36:48;;;;;;;11.32;5.72;;;20.50;70.40;;;;;;6315646;22;20026;-72
2021/09/08 08:39:15;;;;;;;11.18;5.60;;;20.60;69.50;;;;;;6317221;22;20264;-74
2021/09/08 08:41:43;;;;;;;9.98;5.43;;;20.60;68.60;;;;;;6313565;22;20023;-73
2021/09/08 08:44:10;;;;;;;10.93;5.75;;;20.70;68.30;;;;;;6314550;22;20027;-74
2021/09/08 08:46:38;;;;;;;9.93;5.13;;;21.00;68.00;;;;;;6313846;22;20033;-72
2021/09/08 08:49:05;;;;;;;12.63;5.30;;;21.00;67.70;;;;;;6316605;22;20023;-72
2021/09/08 08:51:34;;;;;;;12.40;6.28;;;21.10;67.60;;;;;;6314656;22;20027;-74
2021/09/08 08:54:01;;;;;;;9.43;5.63;;;21.30;67.50;;;;;;6314132;22;20030;-75
2021/09/08 08:56:30;;;;;;;9.88;5.80;;;21.50;67.10;;;;;;6285709;22;20353;-74
2021/09/08 08:58:57;;;;;;;11.95;5.95;;;21.60;66.50;;;;;;6286737;22;20034;-74
2021/09/08 09:01:26;;;;;;;12.02;5.93;;;21.60;65.70;;;;;;6309240;22;20019;-74
2021/09/08 09:04:01;;;;;;;12.65;5.65;;;21.70;66.30;;;;;;6287556;22;20046;-73
2021/09/08 09:06:31;;;;;;;10.27;5.40;;;21.70;66.20;;;;;;6313141;22;20082;-74
2021/09/08 09:09:06;;;;;;;10.98;5.65;;;21.90;65.70;;;;;;6314131;22;20031;-74
2021/09/08 09:11:35;;;;;;;13.00;5.30;;;22.10;65.40;;;;;;6286000;22;20026;-73
2021/09/08 09:14:04;;;;;;;9.48;4.57;;;22.30;65.70;;;;;;6315364;22;20015;-74
2021/09/08 09:16:32;;;;;;;12.43;6.07;;;22.40;63.90;;;;;;6313444;22;20034;-73
2021/09/08 09:18:59;;;;;;;10.57;5.25;;;22.60;63.50;;;;;;6314631;22;20413;-74
2021/09/08 09:21:27;;;;;;;12.90;6.07;;;22.70;63.60;;;;;;6314982;22;20041;-74
2021/09/08 09:23:55;;;;;;;9.95;5.78;;;23.00;63.50;;;;;;6314593;22;20425;-73
2021/09/08 09:26:26;;;;;;;11.23;5.38;;;23.10;62.10;;;;;;6315421;22;20027;-74
2021/09/08 09:28:54;;;;;;;11.60;5.93;;;23.10;61.70;;;;;;6318517;22;20068;-73
2021/09/08 09:31:24;;;;;;;13.80;6.07;;;23.30;60.60;;;;;;6315262;22;20034;-74
2021/09/08 09:33:55;;;;;;;11.60;5.90;;;23.60;58.70;;;;;;6316356;22;20222;-73
2021/09/08 09:36:24;;;;;;;9.73;5.65;;;24.00;56.80;;;;;;6315350;22;20118;-74
2021/09/08 09:38:53;;;;;;;9.48;5.32;;;24.20;56.50;;;;;;6288118;22;20037;-74
2021/09/08 09:41:35;;;;;;;10.77;5.23;;;24.40;55.70;;;;;;6315767;22;20054;-74
2021/09/08 09:44:10;;;;;;;9.70;5.78;;;24.80;55.00;;;;;;6314343;22;20027;-74
2021/09/08 09:46:44;;;;;;;7.45;5.43;;;25.20;53.10;;;;;;6314827;22;20019;-75
2021/09/08 09:49:11;;;;;;;10.00;5.75;;;25.60;52.70;;;;;;6315643;22;20066;-74
2021/09/08 09:51:39;;;;;;;10.07;5.22;;;26.60;51.10;;;;;;6315204;22;20027;-75
2021/09/08 09:54:06;;;;;;;11.30;6.35;;;27.20;48.30;;;;;;6315700;22;20254;-75
2021/09/08 09:56:34;;;;;;;11.20;5.45;;;27.10;47.90;;;;;;6315015;22;20030;-75
2021/09/08 09:59:02;;;;;;;11.07;5.70;;;26.60;48.50;;;;;;6288339;22;20210;-75
2021/09/08 10:01:29;;;;;;;9.45;5.38;;;27.00;48.40;;;;;;6309526;22;20027;-74
2021/09/08 10:03:57;;;;;;;12.13;5.82;;;26.60;48.80;;;;;;6315629;22;20023;-74
2021/09/08 10:06:25;;;;;;;9.32;5.35;;;27.10;47.90;;;;;;6315108;22;20043;-75
2021/09/08 10:08:57;;;;;;;11.93;6.18;;;27.60;47.10;;;;;;6287952;22;20347;-73
2021/09/08 10:11:32;;;;;;;9.90;5.32;;;28.60;44.60;;;;;;6314405;22;20019;-74
2021/09/08 10:14:05;;;;;;;12.38;5.72;;;28.90;42.90;;;;;;6315640;22;20515;-73
2021/09/08 10:16:36;;;;;;;9.45;5.13;;;29.30;42.00;;;;;;6314436;22;20126;-73
2021/09/08 10:19:05;;;;;;;11.52;5.65;;;29.60;41.50;;;;;;6313754;22;20020;-73
2021/09/08 10:21:32;;;;;;;9.82;5.10;;;31.00;40.10;;;;;;6314006;22;20027;-73
2021/09/08 10:24:03;;;;;;;9.73;4.97;;;31.80;37.00;;;;;;6314383;22;20102;-74
2021/09/08 10:26:33;;;;;;;8.52;4.93;;;32.10;36.60;;;;;;6313226;22;20018;-73
2021/09/08 10:29:07;;;;;;;9.05;5.43;;;31.90;36.80;;;;;;6313821;22;20326;-73
2021/09/08 10:31:36;;;;;;;8.90;5.00;;;32.50;35.30;;;;;;6314562;22;20019;-75
2021/09/08 10:34:05;;;;;;;;;;;32.40;35.40;;;;;;6313987;22;20291;-73
2021/09/08 10:36:33;;;;;;;9.48;5.32;;;31.70;36.40;;;;;;6313726;22;19910;-74
2021/09/08 10:39:06;;;;;;;8.32;4.72;;;32.00;36.50;;;;;;6313872;22;20038;-73
2021/09/08 10:41:44;;;;;;;10.05;4.78;;;32.50;35.50;;;;;;6313491;22;20215;-73
2021/09/08 10:44:14;;;;;;;9.33;4.93;;;33.70;34.40;;;;;;6313681;22;20253;-73
2021/09/08 10:46:56;;;;;;;7.50;4.90;;;34.20;33.20;;;;;;6313307;22;20023;-74
2021/09/08 10:49:52;;;;;;;9.43;5.22;;;33.40;33.40;;;;;;6313942;22;20066;-73
2021/09/08 10:52:46;;;;;;;9.63;5.20;;;33.90;32.90;;;;;;6315605;22;20031;-74
2021/09/08 10:55:20;;;;;;;8.13;5.15;;;34.60;31.80;;;;;;6245174;22;20224;-73
2021/09/08 10:58:01;;;;;;;10.88;4.80;;;33.70;32.90;;;;;;6316925;22;20026;-73
2021/09/08 11:00:34;;;;;;;8.73;5.13;;;35.20;31.30;;;;;;6311935;22;20085;-74
2021/09/08 11:03:01;;;;;;;7.95;4.90;;;34.70;31.00;;;;;;6290843;22;20011;-73
2021/09/08 11:05:30;;;;;;;9.15;5.32;;;34.10;31.80;;;;;;6316559;22;20214;-73
2021/09/08 11:07:57;;;;;;;9.32;5.18;;;33.80;31.90;;;;;;6314997;22;20027;-71
2021/09/08 11:10:30;;;;;;;8.05;4.93;;;34.60;30.70;;;;;;6316769;22;20034;-74
2021/09/08 11:12:59;;;;;;;8.55;5.22;;;34.50;31.60;;;;;;6316958;22;20331;-74
2021/09/08 11:15:36;;;;;;;10.27;5.05;;;34.00;31.60;;;;;;6316464;22;20033;-74
2021/09/08 11:18:06;;;;;;;7.50;4.50;;;34.50;30.90;;;;;;6317320;22;20031;-73
2021/09/08 11:20:33;;;;;;;7.85;4.95;;;34.50;31.00;;;;;;6316975;22;20053;-73
2021/09/08 11:23:05;;;;;;;9.13;5.03;;;35.10;30.70;;;;;;6315910;22;20283;-73
2021/09/08 11:25:34;;;;;;;7.07;4.88;;;36.40;28.90;;;;;;6289900;22;20026;-73
2021/09/08 11:28:02;;;;;;;8.93;5.18;;;36.60;28.10;;;;;;6317430;22;20015;-73
2021/09/08 11:30:35;;;;;;;7.57;5.03;;;35.70;28.80;;;;;;6316237;22;20075;-73
2021/09/08 11:33:04;;;;;;;7.65;5.25;;;34.90;30.60;;;;;;6317007;22;20030;-73
2021/09/08 11:35:40;;;;;;;7.68;4.78;;;34.90;30.60;;;;;;6316511;22;20019;-73
2021/09/08 11:38:14;;;;;;;7.20;4.75;;;36.10;28.50;;;;;;6318037;22;20038;-74
2021/09/08 11:40:43;;;;;;;7.93;5.15;;;37.00;27.50;;;;;;6316189;22;20053;-72
2021/09/08 11:43:10;;;;;;;8.18;5.07;;;36.10;27.90;;;;;;6317236;22;20035;-73
2021/09/08 11:45:39;;;;;;;8.05;5.22;;;35.80;27.90;;;;;;6315820;22;20031;-73
2021/09/08 11:48:07;;;;;;;7.50;4.47;;;35.50;28.60;;;;;;6316958;22;20023;-73
2021/09/08 11:50:34;;;;;;;7.65;5.07;;;35.60;28.10;;;;;;6316666;22;20083;-73
2021/09/08 11:53:03;;;;;;;;;;;35.50;28.00;;;;;;6316948;22;20015;-74
2021/09/08 11:55:33;;;;;;;8.82;4.85;;;35.30;28.60;;;;;;6314856;22;20197;-73
2021/09/08 11:58:20;;;;;;;7.60;4.43;;;35.50;29.30;;;;;;6315341;22;20015;-73
2021/09/08 12:00:56;;;;;;;7.80;4.85;;;36.50;26.50;;;;;;6309611;22;20030;-74
2021/09/08 12:03:24;;;;;;;7.90;4.63;;;36.00;27.20;;;;;;6314561;22;20019;-73
2021/09/08 12:05:51;;;;;;;7.15;4.43;;;36.60;26.50;;;;;;6316256;22;20337;-75
2021/09/08 12:08:20;;;;;;;6.65;4.28;;;36.60;26.50;;;;;;6314202;22;20080;-73
2021/09/08 12:10:47;;;;;;;8.15;4.22;;;36.60;26.50;;;;;;6287594;22;20015;-73
2021/09/08 12:13:28;;;;;;;7.32;4.40;;;35.40;27.80;;;;;;6315807;22;20053;-73
2021/09/08 12:15:57;;;;;;;8.70;4.50;;;35.90;27.60;;;;;;6314121;22;20290;-72
2021/09/08 12:18:24;;;;;;;6.97;4.85;;;37.20;26.70;;;;;;6313073;22;20026;-73
2021/09/08 12:20:51;;;;;;;9.25;4.38;;;38.50;24.40;;;;;;6287249;22;20027;-74
2021/09/08 12:23:30;;;;;;;7.65;4.30;;;38.50;25.30;;;;;;6314846;22;20015;-74
2021/09/08 12:26:06;;;;;;;7.25;4.40;;;38.20;24.30;;;;;;6313655;22;20245;-73
2021/09/08 12:28:33;;;;;;;7.07;4.65;;;38.90;23.50;;;;;;6314134;22;20034;-74
2021/09/08 12:31:19;;;;;;;9.18;4.78;;;39.40;23.10;;;;;;6314664;22;20015;-74
2021/09/08 12:33:54;;;;;;;6.78;4.15;;;39.30;22.90;;;;;;6315502;22;20327;-73
2021/09/08 12:36:21;;;;;;;6.70;4.07;;;39.60;22.40;;;;;;6316175;22;20027;-74
2021/09/08 12:38:51;;;;;;;6.53;4.10;;;40.10;22.60;;;;;;6288646;22;20023;-74
2021/09/08 12:41:21;;;;;;;6.07;3.65;;;39.90;22.30;;;;;;6317042;22;20019;-73
2021/09/08 12:44:00;;;;;;;8.13;4.68;;;40.40;22.80;;;;;;6318001;22;20023;-74
2021/09/08 12:46:44;;;;;;;7.85;4.28;;;39.70;21.70;;;;;;6285450;22;20023;-74
2021/09/08 12:49:13;;;;;;;8.40;4.25;;;38.00;23.70;;;;;;6285744;22;20200;-74